sensor_id;sensor_type;location;lat;lon;timestamp;P1;durP1;ratioP1;P2;durP2;ratioP2
8952;SDS011;4511;50.890;8.054;2024-02-26T00:00:14;2.37;;;2.27;;
8952;SDS011;4511;50.890;8.054;2024-02-26T00:02:41;2.73;;;2.37;;
8952;SDS011;4511;50.890;8.054;2024-02-26T00:05:09;2.40;;;2.30;;
8952;SDS011;4511;50.890;8.054;2024-02-26T00:07:35;2.50;;;2.40;;
8952;SDS011;4511;50.890;8.054;2024-02-26T00:10:03;2.50;;;2.30;;
8952;SDS011;4511;50.890;8.054;2024-02-26T00:12:30;2.30;;;2.20;;
8952;SDS011;4511;50.890;8.054;2024-02-26T00:14:57;2.43;;;2.33;;
8952;SDS011;4511;50.890;8.054;2024-02-26T00:17:23;2.63;;;2.20;;
8952;SDS011;4511;50.890;8.054;2024-02-26T00:19:50;2.37;;;2.20;;
8952;SDS011;4511;50.890;8.054;2024-02-26T00:22:19;2.47;;;2.33;;
8952;SDS011;4511;50.890;8.054;2024-02-26T00:24:47;2.73;;;2.40;;
8952;SDS011;4511;50.890;8.054;2024-02-26T00:27:13;2.30;;;2.20;;
8952;SDS011;4511;50.890;8.054;2024-02-26T00:29:40;2.50;;;2.40;;
8952;SDS011;4511;50.890;8.054;2024-02-26T00:32:07;2.40;;;2.20;;
8952;SDS011;4511;50.890;8.054;2024-02-26T00:34:33;2.40;;;2.20;;
8952;SDS011;4511;50.890;8.054;2024-02-26T00:37:01;2.40;;;2.30;;
8952;SDS011;4511;50.890;8.054;2024-02-26T00:39:29;2.43;;;2.33;;
8952;SDS011;4511;50.890;8.054;2024-02-26T00:41:56;2.30;;;2.20;;
8952;SDS011;4511;50.890;8.054;2024-02-26T00:44:23;2.60;;;2.40;;
8952;SDS011;4511;50.890;8.054;2024-02-26T00:46:49;2.63;;;2.43;;
8952;SDS011;4511;50.890;8.054;2024-02-26T00:49:16;2.40;;;2.30;;
8952;SDS011;4511;50.890;8.054;2024-02-26T00:51:43;2.67;;;2.50;;
8952;SDS011;4511;50.890;8.054;2024-02-26T00:54:09;2.73;;;2.50;;
8952;SDS011;4511;50.890;8.054;2024-02-26T00:56:37;2.60;;;2.50;;
8952;SDS011;4511;50.890;8.054;2024-02-26T00:59:04;2.93;;;2.63;;
8952;SDS011;4511;50.890;8.054;2024-02-26T01:01:31;2.80;;;2.60;;
8952;SDS011;4511;50.890;8.054;2024-02-26T01:03:58;2.40;;;2.30;;
8952;SDS011;4511;50.890;8.054;2024-02-26T01:06:24;2.40;;;2.20;;
8952;SDS011;4511;50.890;8.054;2024-02-26T01:08:51;3.23;;;2.40;;
8952;SDS011;4511;50.890;8.054;2024-02-26T01:11:18;2.60;;;2.40;;
8952;SDS011;4511;50.890;8.054;2024-02-26T01:13:46;2.80;;;2.60;;
8952;SDS011;4511;50.890;8.054;2024-02-26T01:16:12;2.70;;;2.50;;
8952;SDS011;4511;50.890;8.054;2024-02-26T01:18:39;2.23;;;2.03;;
8952;SDS011;4511;50.890;8.054;2024-02-26T01:21:06;2.47;;;2.37;;
8952;SDS011;4511;50.890;8.054;2024-02-26T01:23:34;2.50;;;2.30;;
8952;SDS011;4511;50.890;8.054;2024-02-26T01:26:00;2.40;;;2.30;;
8952;SDS011;4511;50.890;8.054;2024-02-26T01:28:28;2.60;;;2.40;;
8952;SDS011;4511;50.890;8.054;2024-02-26T01:30:56;2.60;;;2.40;;
8952;SDS011;4511;50.890;8.054;2024-02-26T01:33:25;2.40;;;2.23;;
8952;SDS011;4511;50.890;8.054;2024-02-26T01:35:52;2.50;;;2.40;;
8952;SDS011;4511;50.890;8.054;2024-02-26T01:38:19;2.20;;;2.10;;
8952;SDS011;4511;50.890;8.054;2024-02-26T01:40:45;2.60;;;2.40;;
8952;SDS011;4511;50.890;8.054;2024-02-26T01:43:12;2.67;;;2.50;;
8952;SDS011;4511;50.890;8.054;2024-02-26T01:45:39;2.57;;;2.40;;
8952;SDS011;4511;50.890;8.054;2024-02-26T01:48:07;2.70;;;2.50;;
8952;SDS011;4511;50.890;8.054;2024-02-26T01:50:35;2.47;;;2.33;;
8952;SDS011;4511;50.890;8.054;2024-02-26T01:53:03;3.00;;;2.60;;
8952;SDS011;4511;50.890;8.054;2024-02-26T01:55:30;3.17;;;2.50;;
8952;SDS011;4511;50.890;8.054;2024-02-26T01:57:57;2.67;;;2.30;;
8952;SDS011;4511;50.890;8.054;2024-02-26T02:00:25;2.60;;;2.40;;
8952;SDS011;4511;50.890;8.054;2024-02-26T02:02:53;2.60;;;2.40;;
8952;SDS011;4511;50.890;8.054;2024-02-26T02:05:21;2.50;;;2.40;;
8952;SDS011;4511;50.890;8.054;2024-02-26T02:07:49;2.60;;;2.50;;
8952;SDS011;4511;50.890;8.054;2024-02-26T02:10:17;2.50;;;2.30;;
8952;SDS011;4511;50.890;8.054;2024-02-26T02:12:47;3.37;;;2.60;;
8952;SDS011;4511;50.890;8.054;2024-02-26T02:15:14;2.73;;;2.53;;
8952;SDS011;4511;50.890;8.054;2024-02-26T02:17:41;2.90;;;2.60;;
8952;SDS011;4511;50.890;8.054;2024-02-26T02:20:08;2.30;;;2.20;;
8952;SDS011;4511;50.890;8.054;2024-02-26T02:22:37;3.13;;;2.60;;
8952;SDS011;4511;50.890;8.054;2024-02-26T02:25:04;2.80;;;2.60;;
8952;SDS011;4511;50.890;8.054;2024-02-26T02:27:31;2.50;;;2.40;;
8952;SDS011;4511;50.890;8.054;2024-02-26T02:29:58;2.63;;;2.50;;
8952;SDS011;4511;50.890;8.054;2024-02-26T02:32:25;2.90;;;2.70;;
8952;SDS011;4511;50.890;8.054;2024-02-26T02:34:53;2.87;;;2.67;;
8952;SDS011;4511;50.890;8.054;2024-02-26T02:37:20;2.90;;;2.70;;
8952;SDS011;4511;50.890;8.054;2024-02-26T02:39:48;3.13;;;2.80;;
8952;SDS011;4511;50.890;8.054;2024-02-26T02:42:15;3.00;;;2.80;;
8952;SDS011;4511;50.890;8.054;2024-02-26T02:44:42;2.97;;;2.43;;
8952;SDS011;4511;50.890;8.054;2024-02-26T02:47:09;2.50;;;2.40;;
8952;SDS011;4511;50.890;8.054;2024-02-26T02:49:36;2.90;;;2.70;;
8952;SDS011;4511;50.890;8.054;2024-02-26T02:52:03;2.73;;;2.53;;
8952;SDS011;4511;50.890;8.054;2024-02-26T02:54:30;2.80;;;2.60;;
8952;SDS011;4511;50.890;8.054;2024-02-26T02:56:59;2.87;;;2.67;;
8952;SDS011;4511;50.890;8.054;2024-02-26T02:59:25;2.50;;;2.40;;
8952;SDS011;4511;50.890;8.054;2024-02-26T03:01:52;2.87;;;2.60;;
8952;SDS011;4511;50.890;8.054;2024-02-26T03:04:19;2.80;;;2.60;;
8952;SDS011;4511;50.890;8.054;2024-02-26T03:06:45;2.67;;;2.47;;
8952;SDS011;4511;50.890;8.054;2024-02-26T03:09:12;2.90;;;2.70;;
8952;SDS011;4511;50.890;8.054;2024-02-26T03:11:39;2.83;;;2.70;;
8952;SDS011;4511;50.890;8.054;2024-02-26T03:14:07;2.60;;;2.50;;
8952;SDS011;4511;50.890;8.054;2024-02-26T03:16:34;2.87;;;2.67;;
8952;SDS011;4511;50.890;8.054;2024-02-26T03:19:01;2.67;;;2.57;;
8952;SDS011;4511;50.890;8.054;2024-02-26T03:21:28;2.80;;;2.60;;
8952;SDS011;4511;50.890;8.054;2024-02-26T03:23:55;3.17;;;2.87;;
8952;SDS011;4511;50.890;8.054;2024-02-26T03:26:22;3.13;;;2.90;;
8952;SDS011;4511;50.890;8.054;2024-02-26T03:28:49;2.70;;;2.50;;
8952;SDS011;4511;50.890;8.054;2024-02-26T03:31:17;2.73;;;2.57;;
8952;SDS011;4511;50.890;8.054;2024-02-26T03:33:44;2.60;;;2.50;;
8952;SDS011;4511;50.890;8.054;2024-02-26T03:36:10;2.90;;;2.70;;
8952;SDS011;4511;50.890;8.054;2024-02-26T03:38:37;2.97;;;2.77;;
8952;SDS011;4511;50.890;8.054;2024-02-26T03:41:04;2.90;;;2.70;;
8952;SDS011;4511;50.890;8.054;2024-02-26T03:43:29;2.47;;;2.37;;
8952;SDS011;4511;50.890;8.054;2024-02-26T03:45:56;3.27;;;2.90;;
8952;SDS011;4511;50.890;8.054;2024-02-26T03:48:24;2.90;;;2.70;;
8952;SDS011;4511;50.890;8.054;2024-02-26T03:50:51;3.10;;;2.90;;
8952;SDS011;4511;50.890;8.054;2024-02-26T03:53:18;4.13;;;3.03;;
8952;SDS011;4511;50.890;8.054;2024-02-26T03:55:45;3.00;;;2.80;;
8952;SDS011;4511;50.890;8.054;2024-02-26T03:58:12;2.90;;;2.70;;
8952;SDS011;4511;50.890;8.054;2024-02-26T04:00:39;3.07;;;2.87;;
8952;SDS011;4511;50.890;8.054;2024-02-26T04:03:05;2.70;;;2.50;;
8952;SDS011;4511;50.890;8.054;2024-02-26T04:05:33;2.93;;;2.60;;
8952;SDS011;4511;50.890;8.054;2024-02-26T04:08:00;3.00;;;2.80;;
8952;SDS011;4511;50.890;8.054;2024-02-26T04:10:28;2.90;;;2.70;;
8952;SDS011;4511;50.890;8.054;2024-02-26T04:12:55;3.10;;;2.90;;
8952;SDS011;4511;50.890;8.054;2024-02-26T04:15:22;2.70;;;2.60;;
8952;SDS011;4511;50.890;8.054;2024-02-26T04:17:48;3.00;;;2.80;;
8952;SDS011;4511;50.890;8.054;2024-02-26T04:20:15;2.80;;;2.70;;
8952;SDS011;4511;50.890;8.054;2024-02-26T04:22:43;2.90;;;2.70;;
8952;SDS011;4511;50.890;8.054;2024-02-26T04:25:11;2.90;;;2.70;;
8952;SDS011;4511;50.890;8.054;2024-02-26T04:27:38;3.13;;;2.60;;
8952;SDS011;4511;50.890;8.054;2024-02-26T04:30:05;2.83;;;2.63;;
8952;SDS011;4511;50.890;8.054;2024-02-26T04:32:32;2.80;;;2.60;;
8952;SDS011;4511;50.890;8.054;2024-02-26T04:34:59;3.20;;;2.90;;
8952;SDS011;4511;50.890;8.054;2024-02-26T04:37:26;3.30;;;2.90;;
8952;SDS011;4511;50.890;8.054;2024-02-26T04:39:57;2.80;;;2.60;;
8952;SDS011;4511;50.890;8.054;2024-02-26T04:42:23;3.87;;;3.03;;
8952;SDS011;4511;50.890;8.054;2024-02-26T04:44:50;2.80;;;2.60;;
8952;SDS011;4511;50.890;8.054;2024-02-26T04:47:16;3.30;;;3.00;;
8952;SDS011;4511;50.890;8.054;2024-02-26T04:49:43;2.90;;;2.70;;
8952;SDS011;4511;50.890;8.054;2024-02-26T04:52:11;2.97;;;2.77;;
8952;SDS011;4511;50.890;8.054;2024-02-26T04:54:38;2.90;;;2.70;;
8952;SDS011;4511;50.890;8.054;2024-02-26T04:57:06;2.80;;;2.60;;
8952;SDS011;4511;50.890;8.054;2024-02-26T04:59:32;4.60;;;2.80;;
8952;SDS011;4511;50.890;8.054;2024-02-26T05:01:59;3.17;;;2.87;;
8952;SDS011;4511;50.890;8.054;2024-02-26T05:04:26;3.07;;;2.87;;
8952;SDS011;4511;50.890;8.054;2024-02-26T05:06:52;3.00;;;2.80;;
8952;SDS011;4511;50.890;8.054;2024-02-26T05:09:19;2.90;;;2.70;;
8952;SDS011;4511;50.890;8.054;2024-02-26T05:11:46;3.00;;;2.80;;
8952;SDS011;4511;50.890;8.054;2024-02-26T05:14:15;2.77;;;2.60;;
8952;SDS011;4511;50.890;8.054;2024-02-26T05:16:41;2.87;;;2.67;;
8952;SDS011;4511;50.890;8.054;2024-02-26T05:19:08;3.20;;;2.90;;
8952;SDS011;4511;50.890;8.054;2024-02-26T05:21:35;2.70;;;2.60;;
8952;SDS011;4511;50.890;8.054;2024-02-26T05:24:02;3.17;;;2.97;;
8952;SDS011;4511;50.890;8.054;2024-02-26T05:26:28;2.80;;;2.60;;
8952;SDS011;4511;50.890;8.054;2024-02-26T05:28:55;2.60;;;2.50;;
8952;SDS011;4511;50.890;8.054;2024-02-26T05:31:26;2.60;;;2.50;;
8952;SDS011;4511;50.890;8.054;2024-02-26T05:33:53;2.67;;;2.50;;
8952;SDS011;4511;50.890;8.054;2024-02-26T05:36:20;3.20;;;3.00;;
8952;SDS011;4511;50.890;8.054;2024-02-26T05:38:47;2.90;;;2.70;;
8952;SDS011;4511;50.890;8.054;2024-02-26T05:41:15;3.27;;;2.97;;
8952;SDS011;4511;50.890;8.054;2024-02-26T05:43:45;3.27;;;3.07;;
8952;SDS011;4511;50.890;8.054;2024-02-26T05:46:12;2.80;;;2.60;;
8952;SDS011;4511;50.890;8.054;2024-02-26T05:48:40;3.17;;;2.97;;
8952;SDS011;4511;50.890;8.054;2024-02-26T05:51:06;3.27;;;2.73;;
8952;SDS011;4511;50.890;8.054;2024-02-26T05:53:33;2.90;;;2.70;;
8952;SDS011;4511;50.890;8.054;2024-02-26T05:56:00;3.03;;;2.83;;
8952;SDS011;4511;50.890;8.054;2024-02-26T05:58:26;2.97;;;2.80;;
8952;SDS011;4511;50.890;8.054;2024-02-26T06:00:53;3.00;;;2.80;;
8952;SDS011;4511;50.890;8.054;2024-02-26T06:03:20;3.30;;;3.00;;
8952;SDS011;4511;50.890;8.054;2024-02-26T06:05:48;3.43;;;3.10;;
8952;SDS011;4511;50.890;8.054;2024-02-26T06:08:15;3.00;;;2.80;;
8952;SDS011;4511;50.890;8.054;2024-02-26T06:10:41;2.90;;;2.70;;
8952;SDS011;4511;50.890;8.054;2024-02-26T06:13:08;3.10;;;2.90;;
8952;SDS011;4511;50.890;8.054;2024-02-26T06:15:35;3.50;;;2.80;;
8952;SDS011;4511;50.890;8.054;2024-02-26T06:18:02;3.20;;;2.90;;
8952;SDS011;4511;50.890;8.054;2024-02-26T06:20:28;3.30;;;3.00;;
8952;SDS011;4511;50.890;8.054;2024-02-26T06:22:56;3.07;;;2.87;;
8952;SDS011;4511;50.890;8.054;2024-02-26T06:25:23;3.13;;;2.93;;
8952;SDS011;4511;50.890;8.054;2024-02-26T06:27:50;3.30;;;3.00;;
8952;SDS011;4511;50.890;8.054;2024-02-26T06:30:17;3.50;;;3.20;;
8952;SDS011;4511;50.890;8.054;2024-02-26T06:32:44;3.10;;;2.90;;
8952;SDS011;4511;50.890;8.054;2024-02-26T06:35:10;3.10;;;2.90;;
8952;SDS011;4511;50.890;8.054;2024-02-26T06:37:37;3.10;;;2.90;;
8952;SDS011;4511;50.890;8.054;2024-02-26T06:40:06;3.10;;;2.80;;
8952;SDS011;4511;50.890;8.054;2024-02-26T06:42:33;3.33;;;3.10;;
8952;SDS011;4511;50.890;8.054;2024-02-26T06:45:00;2.87;;;2.63;;
8952;SDS011;4511;50.890;8.054;2024-02-26T06:47:29;3.10;;;2.80;;
8952;SDS011;4511;50.890;8.054;2024-02-26T06:49:55;3.43;;;3.13;;
8952;SDS011;4511;50.890;8.054;2024-02-26T06:52:23;3.10;;;2.90;;
8952;SDS011;4511;50.890;8.054;2024-02-26T06:54:51;3.50;;;3.23;;
8952;SDS011;4511;50.890;8.054;2024-02-26T06:57:19;3.27;;;3.07;;
8952;SDS011;4511;50.890;8.054;2024-02-26T06:59:45;4.17;;;3.13;;
8952;SDS011;4511;50.890;8.054;2024-02-26T07:02:12;3.43;;;3.23;;
8952;SDS011;4511;50.890;8.054;2024-02-26T07:04:39;3.23;;;3.03;;
8952;SDS011;4511;50.890;8.054;2024-02-26T07:07:06;3.27;;;3.00;;
8952;SDS011;4511;50.890;8.054;2024-02-26T07:09:33;3.47;;;3.00;;
8952;SDS011;4511;50.890;8.054;2024-02-26T07:12:00;3.40;;;3.10;;
8952;SDS011;4511;50.890;8.054;2024-02-26T07:14:28;3.07;;;2.87;;
8952;SDS011;4511;50.890;8.054;2024-02-26T07:16:55;3.30;;;3.10;;
8952;SDS011;4511;50.890;8.054;2024-02-26T07:19:23;3.63;;;3.07;;
8952;SDS011;4511;50.890;8.054;2024-02-26T07:21:50;3.67;;;3.37;;
8952;SDS011;4511;50.890;8.054;2024-02-26T07:24:16;3.30;;;3.10;;
8952;SDS011;4511;50.890;8.054;2024-02-26T07:26:43;3.60;;;3.40;;
8952;SDS011;4511;50.890;8.054;2024-02-26T07:29:10;3.53;;;3.27;;
8952;SDS011;4511;50.890;8.054;2024-02-26T07:31:38;3.00;;;2.80;;
8952;SDS011;4511;50.890;8.054;2024-02-26T07:34:05;3.33;;;3.13;;
8952;SDS011;4511;50.890;8.054;2024-02-26T07:36:31;3.20;;;3.00;;
8952;SDS011;4511;50.890;8.054;2024-02-26T07:38:58;3.63;;;3.33;;
8952;SDS011;4511;50.890;8.054;2024-02-26T07:41:26;3.40;;;3.10;;
8952;SDS011;4511;50.890;8.054;2024-02-26T07:43:52;3.27;;;3.07;;
8952;SDS011;4511;50.890;8.054;2024-02-26T07:46:19;4.07;;;3.20;;
8952;SDS011;4511;50.890;8.054;2024-02-26T07:48:47;3.77;;;3.03;;
8952;SDS011;4511;50.890;8.054;2024-02-26T07:51:14;3.30;;;3.10;;
8952;SDS011;4511;50.890;8.054;2024-02-26T07:53:42;3.30;;;3.10;;
8952;SDS011;4511;50.890;8.054;2024-02-26T07:56:09;3.30;;;3.10;;
8952;SDS011;4511;50.890;8.054;2024-02-26T07:58:35;3.47;;;3.17;;
8952;SDS011;4511;50.890;8.054;2024-02-26T08:01:02;3.50;;;3.20;;
8952;SDS011;4511;50.890;8.054;2024-02-26T08:03:29;3.67;;;3.33;;
8952;SDS011;4511;50.890;8.054;2024-02-26T08:05:57;3.20;;;2.87;;
8952;SDS011;4511;50.890;8.054;2024-02-26T08:08:24;3.67;;;3.37;;
8952;SDS011;4511;50.890;8.054;2024-02-26T08:10:50;3.43;;;3.10;;
8952;SDS011;4511;50.890;8.054;2024-02-26T08:13:17;4.00;;;3.70;;
8952;SDS011;4511;50.890;8.054;2024-02-26T08:15:44;4.00;;;3.60;;
8952;SDS011;4511;50.890;8.054;2024-02-26T08:18:10;4.17;;;3.33;;
8952;SDS011;4511;50.890;8.054;2024-02-26T08:20:37;4.00;;;3.70;;
8952;SDS011;4511;50.890;8.054;2024-02-26T08:23:05;3.53;;;3.23;;
8952;SDS011;4511;50.890;8.054;2024-02-26T08:25:32;3.80;;;3.50;;
8952;SDS011;4511;50.890;8.054;2024-02-26T08:27:58;4.23;;;3.57;;
8952;SDS011;4511;50.890;8.054;2024-02-26T08:30:25;3.60;;;3.30;;
8952;SDS011;4511;50.890;8.054;2024-02-26T08:32:52;3.40;;;3.20;;
8952;SDS011;4511;50.890;8.054;2024-02-26T08:35:19;4.00;;;3.60;;
8952;SDS011;4511;50.890;8.054;2024-02-26T08:37:46;3.73;;;3.43;;
8952;SDS011;4511;50.890;8.054;2024-02-26T08:40:14;4.67;;;3.53;;
8952;SDS011;4511;50.890;8.054;2024-02-26T08:42:41;3.90;;;3.60;;
8952;SDS011;4511;50.890;8.054;2024-02-26T08:45:08;3.60;;;3.40;;
8952;SDS011;4511;50.890;8.054;2024-02-26T08:47:36;3.50;;;3.30;;
8952;SDS011;4511;50.890;8.054;2024-02-26T08:50:03;4.20;;;3.80;;
8952;SDS011;4511;50.890;8.054;2024-02-26T08:52:31;13.03;;;4.23;;
8952;SDS011;4511;50.890;8.054;2024-02-26T08:54:58;3.80;;;3.50;;
8952;SDS011;4511;50.890;8.054;2024-02-26T08:57:26;4.10;;;3.40;;
8952;SDS011;4511;50.890;8.054;2024-02-26T08:59:53;5.20;;;3.23;;
8952;SDS011;4511;50.890;8.054;2024-02-26T09:02:19;4.13;;;3.70;;
8952;SDS011;4511;50.890;8.054;2024-02-26T09:04:46;3.70;;;3.40;;
8952;SDS011;4511;50.890;8.054;2024-02-26T09:07:13;3.83;;;3.43;;
8952;SDS011;4511;50.890;8.054;2024-02-26T09:09:39;4.43;;;3.60;;
8952;SDS011;4511;50.890;8.054;2024-02-26T09:12:06;4.10;;;3.70;;
8952;SDS011;4511;50.890;8.054;2024-02-26T09:14:35;3.83;;;3.53;;
8952;SDS011;4511;50.890;8.054;2024-02-26T09:17:02;3.73;;;3.43;;
8952;SDS011;4511;50.890;8.054;2024-02-26T09:19:29;4.67;;;3.57;;
8952;SDS011;4511;50.890;8.054;2024-02-26T09:21:55;3.60;;;3.40;;
8952;SDS011;4511;50.890;8.054;2024-02-26T09:24:22;4.10;;;3.70;;
8952;SDS011;4511;50.890;8.054;2024-02-26T09:26:49;4.07;;;3.70;;
8952;SDS011;4511;50.890;8.054;2024-02-26T09:29:17;3.97;;;3.57;;
8952;SDS011;4511;50.890;8.054;2024-02-26T09:31:45;4.30;;;3.90;;
8952;SDS011;4511;50.890;8.054;2024-02-26T09:34:13;4.83;;;3.50;;
8952;SDS011;4511;50.890;8.054;2024-02-26T09:36:39;3.93;;;3.63;;
8952;SDS011;4511;50.890;8.054;2024-02-26T09:39:06;3.83;;;3.40;;
8952;SDS011;4511;50.890;8.054;2024-02-26T09:41:36;6.50;;;3.77;;
8952;SDS011;4511;50.890;8.054;2024-02-26T09:44:03;4.63;;;3.80;;
8952;SDS011;4511;50.890;8.054;2024-02-26T09:46:31;3.90;;;3.50;;
8952;SDS011;4511;50.890;8.054;2024-02-26T09:48:59;4.20;;;3.80;;
8952;SDS011;4511;50.890;8.054;2024-02-26T09:51:26;3.80;;;3.50;;
8952;SDS011;4511;50.890;8.054;2024-02-26T09:53:53;3.87;;;3.57;;
8952;SDS011;4511;50.890;8.054;2024-02-26T09:56:22;4.97;;;3.83;;
8952;SDS011;4511;50.890;8.054;2024-02-26T09:58:49;4.23;;;3.60;;
8952;SDS011;4511;50.890;8.054;2024-02-26T10:01:19;4.47;;;3.90;;
8952;SDS011;4511;50.890;8.054;2024-02-26T10:03:49;4.27;;;3.87;;
8952;SDS011;4511;50.890;8.054;2024-02-26T10:06:22;3.83;;;3.53;;
8952;SDS011;4511;50.890;8.054;2024-02-26T10:08:49;5.87;;;4.20;;
8952;SDS011;4511;50.890;8.054;2024-02-26T10:11:17;3.97;;;3.60;;
8952;SDS011;4511;50.890;8.054;2024-02-26T10:13:44;4.80;;;3.73;;
8952;SDS011;4511;50.890;8.054;2024-02-26T10:16:11;4.27;;;3.87;;
8952;SDS011;4511;50.890;8.054;2024-02-26T10:18:47;4.40;;;4.00;;
8952;SDS011;4511;50.890;8.054;2024-02-26T10:21:15;4.20;;;3.90;;
8952;SDS011;4511;50.890;8.054;2024-02-26T10:23:44;4.13;;;3.70;;
8952;SDS011;4511;50.890;8.054;2024-02-26T10:26:12;4.60;;;4.20;;
8952;SDS011;4511;50.890;8.054;2024-02-26T10:28:39;4.73;;;4.33;;
8952;SDS011;4511;50.890;8.054;2024-02-26T10:31:07;4.67;;;4.00;;
8952;SDS011;4511;50.890;8.054;2024-02-26T10:33:35;5.30;;;4.23;;
8952;SDS011;4511;50.890;8.054;2024-02-26T10:36:03;4.30;;;3.90;;
8952;SDS011;4511;50.890;8.054;2024-02-26T10:38:32;4.30;;;3.90;;
8952;SDS011;4511;50.890;8.054;2024-02-26T10:41:00;4.50;;;4.10;;
8952;SDS011;4511;50.890;8.054;2024-02-26T10:43:28;4.53;;;3.90;;
8952;SDS011;4511;50.890;8.054;2024-02-26T10:45:55;4.20;;;3.80;;
8952;SDS011;4511;50.890;8.054;2024-02-26T10:48:22;4.50;;;4.10;;
8952;SDS011;4511;50.890;8.054;2024-02-26T10:50:48;4.80;;;3.63;;
8952;SDS011;4511;50.890;8.054;2024-02-26T10:53:16;4.73;;;4.23;;
8952;SDS011;4511;50.890;8.054;2024-02-26T10:55:46;4.40;;;4.00;;
8952;SDS011;4511;50.890;8.054;2024-02-26T10:58:16;4.40;;;4.00;;
8952;SDS011;4511;50.890;8.054;2024-02-26T11:00:45;4.00;;;3.70;;
8952;SDS011;4511;50.890;8.054;2024-02-26T11:03:13;4.80;;;4.27;;
8952;SDS011;4511;50.890;8.054;2024-02-26T11:05:42;4.13;;;3.73;;
8952;SDS011;4511;50.890;8.054;2024-02-26T11:08:10;4.53;;;4.10;;
8952;SDS011;4511;50.890;8.054;2024-02-26T11:10:37;4.20;;;3.90;;
8952;SDS011;4511;50.890;8.054;2024-02-26T11:13:06;5.07;;;3.90;;
8952;SDS011;4511;50.890;8.054;2024-02-26T11:15:37;4.50;;;4.07;;
8952;SDS011;4511;50.890;8.054;2024-02-26T11:18:06;4.50;;;4.10;;
8952;SDS011;4511;50.890;8.054;2024-02-26T11:20:34;5.20;;;4.43;;
8952;SDS011;4511;50.890;8.054;2024-02-26T11:23:06;4.37;;;3.97;;
8952;SDS011;4511;50.890;8.054;2024-02-26T11:25:33;4.43;;;4.00;;
8952;SDS011;4511;50.890;8.054;2024-02-26T11:28:01;4.47;;;4.07;;
8952;SDS011;4511;50.890;8.054;2024-02-26T11:30:32;4.50;;;4.10;;
8952;SDS011;4511;50.890;8.054;2024-02-26T11:33:05;4.40;;;4.00;;
8952;SDS011;4511;50.890;8.054;2024-02-26T11:35:33;4.50;;;4.10;;
8952;SDS011;4511;50.890;8.054;2024-02-26T11:38:02;4.50;;;4.10;;
8952;SDS011;4511;50.890;8.054;2024-02-26T11:40:31;4.50;;;4.10;;
8952;SDS011;4511;50.890;8.054;2024-02-26T11:42:58;4.60;;;4.20;;
8952;SDS011;4511;50.890;8.054;2024-02-26T11:45:47;4.80;;;4.30;;
8952;SDS011;4511;50.890;8.054;2024-02-26T11:48:21;5.20;;;4.20;;
8952;SDS011;4511;50.890;8.054;2024-02-26T11:50:49;4.60;;;4.10;;
8952;SDS011;4511;50.890;8.054;2024-02-26T11:53:20;4.77;;;4.37;;
8952;SDS011;4511;50.890;8.054;2024-02-26T11:55:48;5.03;;;4.53;;
8952;SDS011;4511;50.890;8.054;2024-02-26T11:58:15;4.53;;;4.13;;
8952;SDS011;4511;50.890;8.054;2024-02-26T12:00:42;5.17;;;4.50;;
8952;SDS011;4511;50.890;8.054;2024-02-26T12:03:08;4.50;;;4.10;;
8952;SDS011;4511;50.890;8.054;2024-02-26T12:05:38;5.10;;;4.40;;
8952;SDS011;4511;50.890;8.054;2024-02-26T12:08:06;4.60;;;4.20;;
8952;SDS011;4511;50.890;8.054;2024-02-26T12:10:34;4.50;;;4.10;;
8952;SDS011;4511;50.890;8.054;2024-02-26T12:13:04;5.13;;;4.63;;
8952;SDS011;4511;50.890;8.054;2024-02-26T12:15:34;4.97;;;4.50;;
8952;SDS011;4511;50.890;8.054;2024-02-26T12:18:03;5.20;;;4.27;;
8952;SDS011;4511;50.890;8.054;2024-02-26T12:20:32;4.70;;;4.30;;
8952;SDS011;4511;50.890;8.054;2024-02-26T12:23:00;4.70;;;4.20;;
8952;SDS011;4511;50.890;8.054;2024-02-26T12:25:28;5.90;;;4.47;;
8952;SDS011;4511;50.890;8.054;2024-02-26T12:27:56;4.77;;;4.27;;
8952;SDS011;4511;50.890;8.054;2024-02-26T12:30:23;5.27;;;4.77;;
8952;SDS011;4511;50.890;8.054;2024-02-26T12:32:51;5.63;;;4.90;;
8952;SDS011;4511;50.890;8.054;2024-02-26T12:35:22;5.30;;;4.53;;
8952;SDS011;4511;50.890;8.054;2024-02-26T12:37:49;4.83;;;4.37;;
8952;SDS011;4511;50.890;8.054;2024-02-26T12:40:18;5.83;;;5.03;;
8952;SDS011;4511;50.890;8.054;2024-02-26T12:42:45;5.23;;;4.73;;
8952;SDS011;4511;50.890;8.054;2024-02-26T12:45:12;4.73;;;4.27;;
8952;SDS011;4511;50.890;8.054;2024-02-26T12:47:41;4.67;;;4.27;;
8952;SDS011;4511;50.890;8.054;2024-02-26T12:50:09;5.10;;;4.57;;
8952;SDS011;4511;50.890;8.054;2024-02-26T12:52:37;5.30;;;4.63;;
8952;SDS011;4511;50.890;8.054;2024-02-26T12:55:06;5.93;;;4.93;;
8952;SDS011;4511;50.890;8.054;2024-02-26T12:57:35;5.57;;;4.60;;
8952;SDS011;4511;50.890;8.054;2024-02-26T13:00:03;5.47;;;4.97;;
8952;SDS011;4511;50.890;8.054;2024-02-26T13:02:34;7.77;;;4.63;;
8952;SDS011;4511;50.890;8.054;2024-02-26T13:05:01;5.00;;;4.50;;
8952;SDS011;4511;50.890;8.054;2024-02-26T13:07:29;5.23;;;4.30;;
8952;SDS011;4511;50.890;8.054;2024-02-26T13:09:56;6.03;;;4.33;;
8952;SDS011;4511;50.890;8.054;2024-02-26T13:12:22;9.20;;;4.37;;
8952;SDS011;4511;50.890;8.054;2024-02-26T13:14:59;4.60;;;4.20;;
8952;SDS011;4511;50.890;8.054;2024-02-26T13:17:26;5.53;;;4.53;;
8952;SDS011;4511;50.890;8.054;2024-02-26T13:19:53;5.10;;;4.53;;
8952;SDS011;4511;50.890;8.054;2024-02-26T13:22:21;4.93;;;4.43;;
8952;SDS011;4511;50.890;8.054;2024-02-26T13:24:53;5.03;;;4.30;;
8952;SDS011;4511;50.890;8.054;2024-02-26T13:27:21;6.50;;;4.80;;
8952;SDS011;4511;50.890;8.054;2024-02-26T13:29:48;6.17;;;4.60;;
8952;SDS011;4511;50.890;8.054;2024-02-26T13:32:16;5.30;;;4.67;;
8952;SDS011;4511;50.890;8.054;2024-02-26T13:34:42;5.30;;;4.80;;
8952;SDS011;4511;50.890;8.054;2024-02-26T13:37:09;4.93;;;4.43;;
8952;SDS011;4511;50.890;8.054;2024-02-26T13:39:36;5.63;;;4.70;;
8952;SDS011;4511;50.890;8.054;2024-02-26T13:42:05;5.43;;;4.90;;
8952;SDS011;4511;50.890;8.054;2024-02-26T13:44:36;5.67;;;4.73;;
8952;SDS011;4511;50.890;8.054;2024-02-26T13:47:05;5.67;;;4.80;;
8952;SDS011;4511;50.890;8.054;2024-02-26T13:49:33;6.87;;;4.90;;
8952;SDS011;4511;50.890;8.054;2024-02-26T13:52:00;5.50;;;5.00;;
8952;SDS011;4511;50.890;8.054;2024-02-26T13:54:27;4.90;;;4.40;;
8952;SDS011;4511;50.890;8.054;2024-02-26T13:56:54;5.17;;;4.67;;
8952;SDS011;4511;50.890;8.054;2024-02-26T13:59:20;5.90;;;4.97;;
8952;SDS011;4511;50.890;8.054;2024-02-26T14:01:47;5.13;;;4.70;;
8952;SDS011;4511;50.890;8.054;2024-02-26T14:04:14;5.00;;;4.50;;
8952;SDS011;4511;50.890;8.054;2024-02-26T14:06:43;4.57;;;4.10;;
8952;SDS011;4511;50.890;8.054;2024-02-26T14:09:09;5.90;;;4.13;;
8952;SDS011;4511;50.890;8.054;2024-02-26T14:11:35;4.87;;;4.37;;
8952;SDS011;4511;50.890;8.054;2024-02-26T14:14:04;5.10;;;4.70;;
8952;SDS011;4511;50.890;8.054;2024-02-26T14:16:31;4.83;;;4.33;;
8952;SDS011;4511;50.890;8.054;2024-02-26T14:18:58;4.87;;;4.37;;
8952;SDS011;4511;50.890;8.054;2024-02-26T14:21:24;5.37;;;4.37;;
8952;SDS011;4511;50.890;8.054;2024-02-26T14:23:53;5.03;;;4.53;;
8952;SDS011;4511;50.890;8.054;2024-02-26T14:26:20;5.73;;;4.80;;
8952;SDS011;4511;50.890;8.054;2024-02-26T14:28:47;4.83;;;4.30;;
8952;SDS011;4511;50.890;8.054;2024-02-26T14:31:16;5.53;;;4.60;;
8952;SDS011;4511;50.890;8.054;2024-02-26T14:33:43;5.30;;;4.77;;
8952;SDS011;4511;50.890;8.054;2024-02-26T14:36:10;5.60;;;5.00;;
8952;SDS011;4511;50.890;8.054;2024-02-26T14:38:37;5.47;;;4.50;;
8952;SDS011;4511;50.890;8.054;2024-02-26T14:41:06;6.00;;;4.90;;
8952;SDS011;4511;50.890;8.054;2024-02-26T14:43:32;5.47;;;4.97;;
8952;SDS011;4511;50.890;8.054;2024-02-26T14:46:00;6.33;;;5.20;;
8952;SDS011;4511;50.890;8.054;2024-02-26T14:48:26;6.77;;;5.00;;
8952;SDS011;4511;50.890;8.054;2024-02-26T14:50:54;5.23;;;4.73;;
8952;SDS011;4511;50.890;8.054;2024-02-26T14:53:21;7.43;;;5.30;;
8952;SDS011;4511;50.890;8.054;2024-02-26T14:55:48;6.80;;;5.27;;
8952;SDS011;4511;50.890;8.054;2024-02-26T14:58:16;5.13;;;4.67;;
8952;SDS011;4511;50.890;8.054;2024-02-26T15:00:42;7.37;;;4.90;;
8952;SDS011;4511;50.890;8.054;2024-02-26T15:03:09;6.30;;;4.97;;
8952;SDS011;4511;50.890;8.054;2024-02-26T15:05:36;4.63;;;4.10;;
8952;SDS011;4511;50.890;8.054;2024-02-26T15:08:03;5.33;;;4.83;;
8952;SDS011;4511;50.890;8.054;2024-02-26T15:10:30;6.40;;;4.90;;
8952;SDS011;4511;50.890;8.054;2024-02-26T15:12:57;7.00;;;5.10;;
8952;SDS011;4511;50.890;8.054;2024-02-26T15:15:25;6.73;;;5.03;;